Arcola, Indiana
Current Conditions -  °F | °C
As of 12:54 PM on Sunday 23 Nov 2014 (Local Time) from KFWA Reporting Station
Broken Clouds Broken Clouds  
Wind Chill: 55°   Ceiling: 7000
Heat Index: 55°   Visibility: 10mi
Dew Point: 47°   Wind: 10mph
Humidity: 74%   Direction: 150°SSE
Pressure: 29.75"   Gusts: NA
Location:  41.1°N, 85.29°W
Report Text: KFWA 231754Z 15009KT 10SM BKN070 BKN170 BKN240 13/08 A2975 RMK AO2 SLP076 60000 T01280083 10128 20067 58048
Loading
Personal Weather Stations






























Interactive Weather Map New forecast layout! Learn more

10-Day Weather Forecast

Advertisements
Track Severe Weather on mobile